Schefferville, Canada
Current Conditions -  °F | °C
As of 7:41 PM on Sunday 21 Dec 2014 (Local Time) from CYKL Reporting Station
Light Snow Light Snow  
Wind Chill: -20°   Ceiling: Unl
Heat Index: -20°   Visibility: 8mi
Dew Point: -22°   Wind: 3mph
Humidity: 85%   Direction: 190°S
Pressure: 30.24"   Gusts: NA
Location:  54.8°N, 66.83°W
Report Text: CYKL 220041Z AUTO 19003KT 8SM -SN CLR M20/M22 A3024 RMK SLP298
Loading
Personal Weather Stations






























Interactive Weather Map New forecast layout! Learn more

10-Day Weather Forecast

Advertisements
Track Severe Weather on mobile